sensor_id;sensor_type;location;lat;lon;timestamp;pressure;altitude;pressure_sealevel;temperature;humidity
8051;BME280;4068;42.158;24.732;2023-03-24T00:00:43;99890.78;;;6.19;100.00
8051;BME280;4068;42.158;24.732;2023-03-24T00:03:08;99857.94;;;5.95;100.00
8051;BME280;4068;42.158;24.732;2023-03-24T00:05:35;99887.09;;;6.08;100.00
8051;BME280;4068;42.158;24.732;2023-03-24T00:08:00;99892.88;;;6.14;100.00
8051;BME280;4068;42.158;24.732;2023-03-24T00:10:29;99894.72;;;6.12;100.00
8051;BME280;4068;42.158;24.732;2023-03-24T00:12:59;99895.63;;;6.11;100.00
8051;BME280;4068;42.158;24.732;2023-03-24T00:15:25;99865.50;;;5.85;100.00
8051;BME280;4068;42.158;24.732;2023-03-24T00:17:51;99890.06;;;6.01;100.00
8051;BME280;4068;42.158;24.732;2023-03-24T00:20:19;99885.47;;;6.05;100.00
8051;BME280;4068;42.158;24.732;2023-03-24T00:22:48;99890.06;;;6.01;100.00
8051;BME280;4068;42.158;24.732;2023-03-24T00:25:21;99881.88;;;5.90;100.00
8051;BME280;4068;42.158;24.732;2023-03-24T00:27:48;99849.63;;;5.70;100.00
8051;BME280;4068;42.158;24.732;2023-03-24T00:30:15;99881.94;;;5.88;100.00
8051;BME280;4068;42.158;24.732;2023-03-24T00:32:41;99882.72;;;5.91;100.00
8051;BME280;4068;42.158;24.732;2023-03-24T00:35:08;99850.63;;;5.68;100.00
8051;BME280;4068;42.158;24.732;2023-03-24T00:37:35;99875.31;;;5.81;100.00
8051;BME280;4068;42.158;24.732;2023-03-24T00:40:07;99868.78;;;5.73;100.00
8051;BME280;4068;42.158;24.732;2023-03-24T00:42:34;99872.38;;;5.72;100.00
8051;BME280;4068;42.158;24.732;2023-03-24T00:45:03;99867.69;;;5.77;100.00
8051;BME280;4068;42.158;24.732;2023-03-24T00:47:30;99836.81;;;5.64;100.00
8051;BME280;4068;42.158;24.732;2023-03-24T00:50:04;99876.19;;;5.82;100.00
8051;BME280;4068;42.158;24.732;2023-03-24T00:52:30;99881.13;;;5.72;100.00
8051;BME280;4068;42.158;24.732;2023-03-24T00:54:59;99878.97;;;5.63;100.00
8051;BME280;4068;42.158;24.732;2023-03-24T00:57:27;99877.47;;;5.59;100.00
8051;BME280;4068;42.158;24.732;2023-03-24T00:59:55;99869.81;;;5.70;100.00
8051;BME280;4068;42.158;24.732;2023-03-24T01:02:23;99852.81;;;5.60;100.00
8051;BME280;4068;42.158;24.732;2023-03-24T01:04:57;99864.06;;;5.63;100.00
8051;BME280;4068;42.158;24.732;2023-03-24T01:07:24;99860.50;;;5.64;100.00
8051;BME280;4068;42.158;24.732;2023-03-24T01:09:50;99860.81;;;5.58;100.00
8051;BME280;4068;42.158;24.732;2023-03-24T01:12:29;99856.34;;;5.60;100.00
8051;BME280;4068;42.158;24.732;2023-03-24T01:14:57;99857.50;;;5.55;100.00
8051;BME280;4068;42.158;24.732;2023-03-24T01:17:22;99858.34;;;5.55;100.00
8051;BME280;4068;42.158;24.732;2023-03-24T01:19:53;99869.03;;;5.52;100.00
8051;BME280;4068;42.158;24.732;2023-03-24T01:22:19;99860.72;;;5.44;100.00
8051;BME280;4068;42.158;24.732;2023-03-24T01:24:46;99862.59;;;5.42;100.00
8051;BME280;4068;42.158;24.732;2023-03-24T01:27:12;99861.63;;;5.43;100.00
8051;BME280;4068;42.158;24.732;2023-03-24T01:29:38;99860.81;;;5.42;100.00
8051;BME280;4068;42.158;24.732;2023-03-24T01:32:05;99820.56;;;5.24;100.00
8051;BME280;4068;42.158;24.732;2023-03-24T01:34:31;99841.19;;;5.32;100.00
8051;BME280;4068;42.158;24.732;2023-03-24T01:36:57;99842.22;;;5.29;100.00
8051;BME280;4068;42.158;24.732;2023-03-24T01:39:23;99808.31;;;5.07;100.00
8051;BME280;4068;42.158;24.732;2023-03-24T01:41:48;99830.13;;;5.09;100.00
8051;BME280;4068;42.158;24.732;2023-03-24T01:44:27;99826.63;;;5.09;100.00
8051;BME280;4068;42.158;24.732;2023-03-24T01:46:54;99822.63;;;5.01;100.00
8051;BME280;4068;42.158;24.732;2023-03-24T01:49:21;99823.16;;;5.08;100.00
8051;BME280;4068;42.158;24.732;2023-03-24T01:51:52;99801.25;;;4.92;100.00
8051;BME280;4068;42.158;24.732;2023-03-24T01:54:27;99780.78;;;4.81;100.00
8051;BME280;4068;42.158;24.732;2023-03-24T01:57:12;99819.69;;;5.08;100.00
8051;BME280;4068;42.158;24.732;2023-03-24T01:59:53;99801.94;;;4.95;100.00
8051;BME280;4068;42.158;24.732;2023-03-24T02:02:19;99824.22;;;5.22;100.00
8051;BME280;4068;42.158;24.732;2023-03-24T02:04:49;99835.75;;;5.19;100.00
8051;BME280;4068;42.158;24.732;2023-03-24T02:08:13;99832.41;;;5.15;100.00
8051;BME280;4068;42.158;24.732;2023-03-24T02:10:15;99819.69;;;5.08;100.00
8051;BME280;4068;42.158;24.732;2023-03-24T02:12:42;99838.47;;;5.17;100.00
8051;BME280;4068;42.158;24.732;2023-03-24T02:15:09;99837.16;;;5.09;100.00
8051;BME280;4068;42.158;24.732;2023-03-24T02:20:27;99805.63;;;4.75;100.00
8051;BME280;4068;42.158;24.732;2023-03-24T02:26:30;99837.44;;;4.87;100.00
8051;BME280;4068;42.158;24.732;2023-03-24T02:45:01;99862.13;;;4.49;100.00
8051;BME280;4068;42.158;24.732;2023-03-24T02:56:00;99854.84;;;4.37;100.00
8051;BME280;4068;42.158;24.732;2023-03-24T02:58:48;99865.72;;;4.29;100.00
8051;BME280;4068;42.158;24.732;2023-03-24T03:03:59;99870.97;;;4.29;100.00
8051;BME280;4068;42.158;24.732;2023-03-24T03:06:32;99869.38;;;4.26;100.00
8051;BME280;4068;42.158;24.732;2023-03-24T03:09:04;99870.53;;;4.21;100.00
8051;BME280;4068;42.158;24.732;2023-03-24T03:11:32;99874.91;;;4.20;100.00
8051;BME280;4068;42.158;24.732;2023-03-24T03:14:34;99891.53;;;4.21;100.00
8051;BME280;4068;42.158;24.732;2023-03-24T03:17:21;99901.78;;;4.25;100.00
8051;BME280;4068;42.158;24.732;2023-03-24T03:19:51;99911.72;;;4.19;100.00
8051;BME280;4068;42.158;24.732;2023-03-24T03:22:29;99904.66;;;4.02;100.00
8051;BME280;4068;42.158;24.732;2023-03-24T03:24:59;99910.00;;;4.00;100.00
8051;BME280;4068;42.158;24.732;2023-03-24T03:27:29;99900.94;;;3.88;100.00
8051;BME280;4068;42.158;24.732;2023-03-24T03:30:02;99884.06;;;3.75;100.00
8051;BME280;4068;42.158;24.732;2023-03-24T03:32:34;99885.13;;;3.71;100.00
8051;BME280;4068;42.158;24.732;2023-03-24T03:35:21;99872.28;;;3.65;100.00
8051;BME280;4068;42.158;24.732;2023-03-24T03:38:15;99859.03;;;3.68;100.00
8051;BME280;4068;42.158;24.732;2023-03-24T03:40:51;99844.00;;;3.71;100.00
8051;BME280;4068;42.158;24.732;2023-03-24T03:43:17;99837.38;;;3.82;100.00
8051;BME280;4068;42.158;24.732;2023-03-24T03:45:43;99832.28;;;3.78;100.00
8051;BME280;4068;42.158;24.732;2023-03-24T03:48:09;99822.50;;;3.82;100.00
8051;BME280;4068;42.158;24.732;2023-03-24T03:50:35;99831.78;;;3.89;100.00
8051;BME280;4068;42.158;24.732;2023-03-24T03:53:02;99830.72;;;3.93;100.00
8051;BME280;4068;42.158;24.732;2023-03-24T03:55:28;99793.31;;;3.71;100.00
8051;BME280;4068;42.158;24.732;2023-03-24T03:57:53;99827.94;;;3.96;100.00
8051;BME280;4068;42.158;24.732;2023-03-24T04:00:20;99795.91;;;3.90;100.00
8051;BME280;4068;42.158;24.732;2023-03-24T04:05:35;99825.81;;;4.22;100.00
8051;BME280;4068;42.158;24.732;2023-03-24T04:08:22;99820.47;;;4.76;100.00
8051;BME280;4068;42.158;24.732;2023-03-24T04:16:03;99824.75;;;4.95;100.00
8051;BME280;4068;42.158;24.732;2023-03-24T04:27:06;99842.09;;;5.15;100.00
8051;BME280;4068;42.158;24.732;2023-03-24T04:29:45;99841.66;;;5.07;100.00
8051;BME280;4068;42.158;24.732;2023-03-24T04:32:34;99841.56;;;5.08;100.00
8051;BME280;4068;42.158;24.732;2023-03-24T04:35:24;99838.94;;;5.08;100.00
8051;BME280;4068;42.158;24.732;2023-03-24T04:38:08;99816.16;;;4.91;100.00
8051;BME280;4068;42.158;24.732;2023-03-24T04:40:36;99836.09;;;4.95;100.00
8051;BME280;4068;42.158;24.732;2023-03-24T04:43:08;99845.94;;;4.92;100.00
8051;BME280;4068;42.158;24.732;2023-03-24T04:45:35;99849.38;;;4.76;100.00
8051;BME280;4068;42.158;24.732;2023-03-24T04:48:03;99848.34;;;4.61;100.00
8051;BME280;4068;42.158;24.732;2023-03-24T04:50:35;99853.22;;;4.52;100.00
8051;BME280;4068;42.158;24.732;2023-03-24T04:53:02;99864.28;;;4.41;100.00
8051;BME280;4068;42.158;24.732;2023-03-24T04:58:19;99870.00;;;4.49;100.00
8051;BME280;4068;42.158;24.732;2023-03-24T05:00:45;99860.81;;;4.58;100.00
8051;BME280;4068;42.158;24.732;2023-03-24T05:03:12;99869.09;;;4.68;100.00
8051;BME280;4068;42.158;24.732;2023-03-24T05:05:48;99864.59;;;4.70;100.00
8051;BME280;4068;42.158;24.732;2023-03-24T05:08:15;99876.72;;;4.72;100.00
8051;BME280;4068;42.158;24.732;2023-03-24T05:10:41;99872.94;;;4.78;100.00
8051;BME280;4068;42.158;24.732;2023-03-24T05:13:07;99880.16;;;4.90;100.00
8051;BME280;4068;42.158;24.732;2023-03-24T05:15:33;99885.50;;;4.89;100.00
8051;BME280;4068;42.158;24.732;2023-03-24T05:17:59;99882.19;;;4.85;100.00
8051;BME280;4068;42.158;24.732;2023-03-24T05:20:25;99879.28;;;5.07;100.00
8051;BME280;4068;42.158;24.732;2023-03-24T05:22:51;99888.25;;;5.21;100.00
8051;BME280;4068;42.158;24.732;2023-03-24T05:25:18;99881.75;;;5.28;100.00
8051;BME280;4068;42.158;24.732;2023-03-24T05:27:44;99862.97;;;5.18;100.00
8051;BME280;4068;42.158;24.732;2023-03-24T05:30:10;99883.31;;;5.48;100.00
8051;BME280;4068;42.158;24.732;2023-03-24T05:32:36;99894.25;;;5.56;100.00
8051;BME280;4068;42.158;24.732;2023-03-24T05:35:02;99889.34;;;5.66;100.00
8051;BME280;4068;42.158;24.732;2023-03-24T05:37:28;99890.81;;;5.87;100.00
8051;BME280;4068;42.158;24.732;2023-03-24T05:39:53;99888.00;;;5.91;100.00
8051;BME280;4068;42.158;24.732;2023-03-24T05:42:19;99875.44;;;5.96;100.00
8051;BME280;4068;42.158;24.732;2023-03-24T05:44:45;99900.13;;;6.25;100.00
8051;BME280;4068;42.158;24.732;2023-03-24T05:47:12;99907.78;;;6.30;100.00
8051;BME280;4068;42.158;24.732;2023-03-24T05:49:43;99903.94;;;6.35;100.00
8051;BME280;4068;42.158;24.732;2023-03-24T05:52:09;99899.72;;;6.33;100.00
8051;BME280;4068;42.158;24.732;2023-03-24T05:54:36;99905.13;;;6.46;100.00
8051;BME280;4068;42.158;24.732;2023-03-24T05:57:05;99913.16;;;6.59;100.00
8051;BME280;4068;42.158;24.732;2023-03-24T05:59:33;99897.69;;;6.52;100.00
8051;BME280;4068;42.158;24.732;2023-03-24T06:02:00;99913.25;;;6.57;100.00
8051;BME280;4068;42.158;24.732;2023-03-24T06:04:26;99888.13;;;6.51;100.00
8051;BME280;4068;42.158;24.732;2023-03-24T06:06:55;99915.47;;;6.79;100.00
8051;BME280;4068;42.158;24.732;2023-03-24T06:09:24;99920.78;;;6.94;100.00
8051;BME280;4068;42.158;24.732;2023-03-24T06:11:50;99915.78;;;6.89;100.00
8051;BME280;4068;42.158;24.732;2023-03-24T06:14:15;99911.84;;;6.96;100.00
8051;BME280;4068;42.158;24.732;2023-03-24T06:16:41;99919.03;;;7.08;100.00
8051;BME280;4068;42.158;24.732;2023-03-24T06:19:07;99907.47;;;7.25;100.00
8051;BME280;4068;42.158;24.732;2023-03-24T06:21:32;99914.16;;;7.31;100.00
8051;BME280;4068;42.158;24.732;2023-03-24T06:23:58;99921.59;;;7.39;100.00
8051;BME280;4068;42.158;24.732;2023-03-24T06:26:25;99893.50;;;7.52;100.00
8051;BME280;4068;42.158;24.732;2023-03-24T06:28:50;99916.78;;;7.74;100.00
8051;BME280;4068;42.158;24.732;2023-03-24T06:31:20;99916.19;;;7.84;100.00
8051;BME280;4068;42.158;24.732;2023-03-24T06:33:52;99911.47;;;8.16;100.00
8051;BME280;4068;42.158;24.732;2023-03-24T06:36:18;99920.34;;;8.29;100.00
8051;BME280;4068;42.158;24.732;2023-03-24T06:38:44;99929.84;;;8.46;100.00
8051;BME280;4068;42.158;24.732;2023-03-24T06:41:10;99909.66;;;8.31;100.00
8051;BME280;4068;42.158;24.732;2023-03-24T06:43:35;99920.00;;;8.49;100.00
8051;BME280;4068;42.158;24.732;2023-03-24T06:46:01;99926.66;;;8.27;100.00
8051;BME280;4068;42.158;24.732;2023-03-24T06:48:26;99925.84;;;8.54;100.00
8051;BME280;4068;42.158;24.732;2023-03-24T06:50:52;99924.94;;;8.80;100.00
8051;BME280;4068;42.158;24.732;2023-03-24T06:53:19;99932.28;;;9.03;100.00
8051;BME280;4068;42.158;24.732;2023-03-24T06:55:48;99931.84;;;9.22;100.00
8051;BME280;4068;42.158;24.732;2023-03-24T06:58:15;99934.00;;;9.42;100.00
8051;BME280;4068;42.158;24.732;2023-03-24T07:00:42;99933.75;;;9.58;100.00
8051;BME280;4068;42.158;24.732;2023-03-24T07:03:08;99942.97;;;9.65;100.00
8051;BME280;4068;42.158;24.732;2023-03-24T07:05:38;99916.72;;;9.49;100.00
8051;BME280;4068;42.158;24.732;2023-03-24T07:08:04;99948.47;;;9.75;100.00
8051;BME280;4068;42.158;24.732;2023-03-24T07:10:30;99948.56;;;9.87;100.00
8051;BME280;4068;42.158;24.732;2023-03-24T07:12:55;99945.94;;;10.11;100.00
8051;BME280;4068;42.158;24.732;2023-03-24T07:15:22;99951.81;;;10.27;100.00
8051;BME280;4068;42.158;24.732;2023-03-24T07:17:48;99933.88;;;10.44;100.00
8051;BME280;4068;42.158;24.732;2023-03-24T07:20:13;99961.22;;;10.68;100.00
8051;BME280;4068;42.158;24.732;2023-03-24T07:22:40;99957.63;;;10.69;100.00
8051;BME280;4068;42.158;24.732;2023-03-24T07:25:06;99967.38;;;10.69;100.00
8051;BME280;4068;42.158;24.732;2023-03-24T07:27:33;99963.09;;;10.79;100.00
8051;BME280;4068;42.158;24.732;2023-03-24T07:29:59;99950.28;;;10.84;100.00
8051;BME280;4068;42.158;24.732;2023-03-24T07:32:25;99950.34;;;10.96;100.00
8051;BME280;4068;42.158;24.732;2023-03-24T07:34:53;99948.94;;;11.14;100.00
8051;BME280;4068;42.158;24.732;2023-03-24T07:37:18;99948.97;;;11.37;100.00
8051;BME280;4068;42.158;24.732;2023-03-24T07:39:44;99937.00;;;11.20;100.00
8051;BME280;4068;42.158;24.732;2023-03-24T07:42:10;99935.38;;;11.42;100.00
8051;BME280;4068;42.158;24.732;2023-03-24T07:44:35;99944.56;;;11.71;100.00
8051;BME280;4068;42.158;24.732;2023-03-24T07:47:01;99933.44;;;11.89;100.00
8051;BME280;4068;42.158;24.732;2023-03-24T07:49:26;99905.63;;;11.93;100.00
8051;BME280;4068;42.158;24.732;2023-03-24T07:51:51;99934.94;;;12.25;100.00
8051;BME280;4068;42.158;24.732;2023-03-24T07:54:17;99902.81;;;12.29;100.00
8051;BME280;4068;42.158;24.732;2023-03-24T07:56:42;99925.56;;;12.54;99.30
8051;BME280;4068;42.158;24.732;2023-03-24T07:59:08;99900.56;;;12.45;100.00
8051;BME280;4068;42.158;24.732;2023-03-24T08:01:35;99927.84;;;12.58;99.04
8051;BME280;4068;42.158;24.732;2023-03-24T08:04:02;99920.84;;;12.57;99.83
8051;BME280;4068;42.158;24.732;2023-03-24T08:06:27;99916.28;;;12.69;99.96
8051;BME280;4068;42.158;24.732;2023-03-24T08:08:53;99917.81;;;12.83;99.36
8051;BME280;4068;42.158;24.732;2023-03-24T08:11:19;99915.16;;;12.83;98.74
8051;BME280;4068;42.158;24.732;2023-03-24T08:13:46;99922.16;;;12.84;97.87
8051;BME280;4068;42.158;24.732;2023-03-24T08:16:12;99915.16;;;12.83;98.35
8051;BME280;4068;42.158;24.732;2023-03-24T08:18:37;99910.91;;;12.81;98.02
8051;BME280;4068;42.158;24.732;2023-03-24T08:21:03;99912.50;;;13.04;98.15
8051;BME280;4068;42.158;24.732;2023-03-24T08:23:29;99911.06;;;13.00;97.42
8051;BME280;4068;42.158;24.732;2023-03-24T08:25:55;99903.22;;;12.99;98.09
8051;BME280;4068;42.158;24.732;2023-03-24T08:28:20;99897.00;;;13.19;97.81
8051;BME280;4068;42.158;24.732;2023-03-24T08:30:46;99869.47;;;13.30;96.71
8051;BME280;4068;42.158;24.732;2023-03-24T08:33:13;99898.03;;;13.49;95.38
8051;BME280;4068;42.158;24.732;2023-03-24T08:35:40;99871.13;;;13.52;95.18
8051;BME280;4068;42.158;24.732;2023-03-24T08:38:07;99893.09;;;13.75;94.95
8051;BME280;4068;42.158;24.732;2023-03-24T08:40:34;99892.81;;;13.78;94.87
8051;BME280;4068;42.158;24.732;2023-03-24T08:43:03;99886.94;;;13.85;93.90
8051;BME280;4068;42.158;24.732;2023-03-24T08:45:30;99888.22;;;13.90;94.39
8051;BME280;4068;42.158;24.732;2023-03-24T08:47:58;99888.09;;;14.02;94.15
8051;BME280;4068;42.158;24.732;2023-03-24T08:50:27;99872.16;;;13.71;95.42
8051;BME280;4068;42.158;24.732;2023-03-24T08:52:54;99884.75;;;14.00;95.02
8051;BME280;4068;42.158;24.732;2023-03-24T08:55:20;99876.03;;;13.97;95.10
8051;BME280;4068;42.158;24.732;2023-03-24T08:57:46;99877.28;;;14.03;94.43
8051;BME280;4068;42.158;24.732;2023-03-24T09:00:13;99877.91;;;14.17;93.78
8051;BME280;4068;42.158;24.732;2023-03-24T09:02:48;99880.16;;;14.31;92.70
8051;BME280;4068;42.158;24.732;2023-03-24T09:05:14;99874.25;;;14.47;91.37
8051;BME280;4068;42.158;24.732;2023-03-24T09:07:42;99867.38;;;14.74;90.23
8051;BME280;4068;42.158;24.732;2023-03-24T09:10:09;99862.13;;;14.92;88.90
8051;BME280;4068;42.158;24.732;2023-03-24T09:12:35;99845.72;;;14.96;87.47
8051;BME280;4068;42.158;24.732;2023-03-24T09:15:02;99860.25;;;15.12;86.53
8051;BME280;4068;42.158;24.732;2023-03-24T09:17:28;99848.47;;;15.05;86.65
8051;BME280;4068;42.158;24.732;2023-03-24T09:19:54;99857.38;;;15.33;86.91
8051;BME280;4068;42.158;24.732;2023-03-24T09:22:20;99853.34;;;15.57;85.43
8051;BME280;4068;42.158;24.732;2023-03-24T09:24:46;99856.75;;;15.49;84.80
8051;BME280;4068;42.158;24.732;2023-03-24T09:27:14;99846.78;;;15.79;84.38
8051;BME280;4068;42.158;24.732;2023-03-24T09:29:40;99851.09;;;15.90;84.50
8051;BME280;4068;42.158;24.732;2023-03-24T09:32:06;99844.28;;;15.95;83.79
8051;BME280;4068;42.158;24.732;2023-03-24T09:34:31;99842.97;;;15.71;83.86
8051;BME280;4068;42.158;24.732;2023-03-24T09:37:01;99842.97;;;15.71;83.17
8051;BME280;4068;42.158;24.732;2023-03-24T09:39:26;99834.25;;;15.79;83.79
8051;BME280;4068;42.158;24.732;2023-03-24T09:41:53;99827.19;;;15.78;82.87
8051;BME280;4068;42.158;24.732;2023-03-24T09:44:27;99830.38;;;15.64;83.76
8051;BME280;4068;42.158;24.732;2023-03-24T09:49:53;99815.41;;;15.71;84.04
8051;BME280;4068;42.158;24.732;2023-03-24T09:52:23;99824.03;;;15.93;81.74
8051;BME280;4068;42.158;24.732;2023-03-24T09:54:57;99828.72;;;15.91;81.21
8051;BME280;4068;42.158;24.732;2023-03-24T09:57:40;99823.28;;;16.00;80.61
8051;BME280;4068;42.158;24.732;2023-03-24T10:00:20;99819.66;;;15.92;81.78
8051;BME280;4068;42.158;24.732;2023-03-24T10:02:47;99808.44;;;16.06;81.66
8051;BME280;4068;42.158;24.732;2023-03-24T10:05:38;99807.22;;;16.18;80.36
8051;BME280;4068;42.158;24.732;2023-03-24T10:11:03;99771.84;;;15.88;80.40
8051;BME280;4068;42.158;24.732;2023-03-24T10:16:29;99787.44;;;16.11;77.58
8051;BME280;4068;42.158;24.732;2023-03-24T10:19:10;99782.44;;;16.34;78.06
8051;BME280;4068;42.158;24.732;2023-03-24T10:21:40;99756.06;;;16.39;77.49
8051;BME280;4068;42.158;24.732;2023-03-24T10:24:26;99788.66;;;16.61;75.71
8051;BME280;4068;42.158;24.732;2023-03-24T10:29:35;99782.72;;;16.76;72.45
8051;BME280;4068;42.158;24.732;2023-03-24T10:32:17;99785.72;;;16.90;71.96
8051;BME280;4068;42.158;24.732;2023-03-24T10:34:47;99785.47;;;17.10;70.81
8051;BME280;4068;42.158;24.732;2023-03-24T10:37:15;99774.94;;;17.17;70.23
8051;BME280;4068;42.158;24.732;2023-03-24T10:39:42;99774.53;;;17.38;68.20
8051;BME280;4068;42.158;24.732;2023-03-24T10:42:12;99768.00;;;17.40;68.93
8051;BME280;4068;42.158;24.732;2023-03-24T10:44:39;99766.16;;;17.41;67.58
8051;BME280;4068;42.158;24.732;2023-03-24T10:47:04;99763.66;;;17.39;66.65
8051;BME280;4068;42.158;24.732;2023-03-24T10:49:32;99765.72;;;17.11;66.55
8051;BME280;4068;42.158;24.732;2023-03-24T10:52:02;99754.22;;;17.27;66.75
8051;BME280;4068;42.158;24.732;2023-03-24T10:54:33;99751.75;;;17.42;67.00
8051;BME280;4068;42.158;24.732;2023-03-24T10:59:35;99747.44;;;17.66;66.54
8051;BME280;4068;42.158;24.732;2023-03-24T11:04:37;99745.53;;;18.01;64.75
8051;BME280;4068;42.158;24.732;2023-03-24T11:07:15;99732.41;;;17.89;65.15
8051;BME280;4068;42.158;24.732;2023-03-24T11:10:27;99728.78;;;17.99;65.35
8051;BME280;4068;42.158;24.732;2023-03-24T11:12:30;99713.81;;;18.21;63.72
8051;BME280;4068;42.158;24.732;2023-03-24T11:17:37;99702.44;;;18.02;64.28
8051;BME280;4068;42.158;24.732;2023-03-24T11:20:18;99674.56;;;17.87;63.50
8051;BME280;4068;42.158;24.732;2023-03-24T11:22:55;99668.19;;;17.80;63.39
8051;BME280;4068;42.158;24.732;2023-03-24T11:25:27;99661.16;;;17.87;61.71
8051;BME280;4068;42.158;24.732;2023-03-24T11:28:02;99671.41;;;18.08;60.86
8051;BME280;4068;42.158;24.732;2023-03-24T11:30:35;99674.53;;;18.44;60.43
8051;BME280;4068;42.158;24.732;2023-03-24T11:33:15;99674.53;;;18.53;59.77
8051;BME280;4068;42.158;24.732;2023-03-24T11:35:42;99642.69;;;18.25;58.85
8051;BME280;4068;42.158;24.732;2023-03-24T11:38:07;99669.03;;;18.29;59.96
8051;BME280;4068;42.158;24.732;2023-03-24T11:40:33;99651.34;;;18.60;59.37
8051;BME280;4068;42.158;24.732;2023-03-24T11:43:00;99654.34;;;18.57;58.71
8051;BME280;4068;42.158;24.732;2023-03-24T11:45:39;99653.31;;;18.74;58.46
8051;BME280;4068;42.158;24.732;2023-03-24T11:48:23;99650.44;;;18.76;58.03
8051;BME280;4068;42.158;24.732;2023-03-24T11:50:50;99607.06;;;18.48;60.40
8051;BME280;4068;42.158;24.732;2023-03-24T11:53:20;99639.69;;;18.76;60.27
8051;BME280;4068;42.158;24.732;2023-03-24T11:56:02;99642.00;;;18.95;60.18
8051;BME280;4068;42.158;24.732;2023-03-24T11:58:36;99629.91;;;18.91;59.21
8051;BME280;4068;42.158;24.732;2023-03-24T12:03:57;99623.00;;;18.97;59.22
8051;BME280;4068;42.158;24.732;2023-03-24T12:14:03;99604.56;;;19.17;55.25
8051;BME280;4068;42.158;24.732;2023-03-24T12:17:06;99601.72;;;19.19;54.86
8051;BME280;4068;42.158;24.732;2023-03-24T12:39:09;99563.72;;;19.83;52.16
8051;BME280;4068;42.158;24.732;2023-03-24T12:42:10;99550.28;;;19.83;52.43
8051;BME280;4068;42.158;24.732;2023-03-24T12:53:09;99542.38;;;19.81;53.01
8051;BME280;4068;42.158;24.732;2023-03-24T12:55:53;99533.59;;;20.03;52.59
8051;BME280;4068;42.158;24.732;2023-03-24T13:01:26;99529.41;;;20.00;52.57
8051;BME280;4068;42.158;24.732;2023-03-24T13:04:10;99534.50;;;19.95;53.48
8051;BME280;4068;42.158;24.732;2023-03-24T13:06:47;99534.50;;;19.95;53.85
8051;BME280;4068;42.158;24.732;2023-03-24T13:15:05;99524.84;;;20.00;53.39
8051;BME280;4068;42.158;24.732;2023-03-24T13:20:57;99514.81;;;20.09;52.37
8051;BME280;4068;42.158;24.732;2023-03-24T13:23:51;99509.81;;;20.21;51.72
8051;BME280;4068;42.158;24.732;2023-03-24T13:32:08;99504.31;;;20.29;51.94
8051;BME280;4068;42.158;24.732;2023-03-24T13:34:40;99503.88;;;20.26;51.23
8051;BME280;4068;42.158;24.732;2023-03-24T13:37:23;99494.59;;;20.28;51.41
8051;BME280;4068;42.158;24.732;2023-03-24T13:39:55;99493.38;;;20.31;51.37
8051;BME280;4068;42.158;24.732;2023-03-24T13:42:40;99493.94;;;20.26;50.91
8051;BME280;4068;42.158;24.732;2023-03-24T13:45:22;99489.00;;;20.30;50.73
8051;BME280;4068;42.158;24.732;2023-03-24T13:47:52;99477.47;;;20.36;50.55
8051;BME280;4068;42.158;24.732;2023-03-24T13:50:26;99485.03;;;20.26;50.11
8051;BME280;4068;42.158;24.732;2023-03-24T13:52:52;99474.06;;;20.27;49.56
8051;BME280;4068;42.158;24.732;2023-03-24T13:55:25;99479.78;;;20.39;48.35
8051;BME280;4068;42.158;24.732;2023-03-24T13:58:19;99470.13;;;20.45;49.12
8051;BME280;4068;42.158;24.732;2023-03-24T14:03:38;99467.91;;;20.33;51.35
8051;BME280;4068;42.158;24.732;2023-03-24T14:06:08;99468.09;;;20.32;52.31
8051;BME280;4068;42.158;24.732;2023-03-24T14:19:30;99450.97;;;20.18;52.08
8051;BME280;4068;42.158;24.732;2023-03-24T14:24:38;99447.91;;;20.06;51.64
8051;BME280;4068;42.158;24.732;2023-03-24T14:27:31;99451.28;;;20.08;50.25
8051;BME280;4068;42.158;24.732;2023-03-24T14:30:15;99440.84;;;20.20;50.61
8051;BME280;4068;42.158;24.732;2023-03-24T14:32:46;99434.97;;;20.31;48.99
8051;BME280;4068;42.158;24.732;2023-03-24T14:35:32;99442.56;;;20.28;48.45
8051;BME280;4068;42.158;24.732;2023-03-24T14:40:44;99439.16;;;20.19;48.79
8051;BME280;4068;42.158;24.732;2023-03-24T14:43:12;99432.88;;;20.12;48.95
8051;BME280;4068;42.158;24.732;2023-03-24T14:46:00;99428.63;;;20.03;49.10
8051;BME280;4068;42.158;24.732;2023-03-24T14:48:50;99412.56;;;19.79;48.50
8051;BME280;4068;42.158;24.732;2023-03-24T14:54:02;99430.88;;;19.84;47.44
8051;BME280;4068;42.158;24.732;2023-03-24T14:56:36;99424.34;;;19.78;47.24
8051;BME280;4068;42.158;24.732;2023-03-24T14:59:09;99426.13;;;19.71;46.91
8051;BME280;4068;42.158;24.732;2023-03-24T15:01:36;99432.88;;;19.67;46.43
8051;BME280;4068;42.158;24.732;2023-03-24T15:04:08;99414.97;;;19.74;46.26
8051;BME280;4068;42.158;24.732;2023-03-24T15:06:46;99420.75;;;19.71;46.41
8051;BME280;4068;42.158;24.732;2023-03-24T15:09:15;99422.31;;;19.65;45.92
8051;BME280;4068;42.158;24.732;2023-03-24T15:11:42;99420.16;;;19.61;45.86
8051;BME280;4068;42.158;24.732;2023-03-24T15:14:35;99400.41;;;19.54;45.54
8051;BME280;4068;42.158;24.732;2023-03-24T15:17:20;99418.69;;;19.58;45.59
8051;BME280;4068;42.158;24.732;2023-03-24T15:19:52;99422.28;;;19.51;45.55
8051;BME280;4068;42.158;24.732;2023-03-24T15:22:18;99393.16;;;19.39;45.69
8051;BME280;4068;42.158;24.732;2023-03-24T15:24:49;99417.41;;;19.54;45.76
8051;BME280;4068;42.158;24.732;2023-03-24T15:29:42;99392.16;;;19.25;46.25
8051;BME280;4068;42.158;24.732;2023-03-24T15:32:27;99411.06;;;19.32;46.23
8051;BME280;4068;42.158;24.732;2023-03-24T15:34:58;99414.94;;;19.29;46.39
8051;BME280;4068;42.158;24.732;2023-03-24T15:37:38;99418.38;;;19.23;46.75
8051;BME280;4068;42.158;24.732;2023-03-24T15:43:03;99417.41;;;19.01;48.20
8051;BME280;4068;42.158;24.732;2023-03-24T15:45:43;99409.88;;;18.96;47.96
8051;BME280;4068;42.158;24.732;2023-03-24T15:48:17;99418.84;;;18.89;48.54
8051;BME280;4068;42.158;24.732;2023-03-24T15:50:56;99407.78;;;18.84;48.82
8051;BME280;4068;42.158;24.732;2023-03-24T15:53:28;99382.78;;;18.60;47.67
8051;BME280;4068;42.158;24.732;2023-03-24T15:56:11;99406.22;;;18.66;48.16
8051;BME280;4068;42.158;24.732;2023-03-24T15:58:53;99383.72;;;18.44;48.80
8051;BME280;4068;42.158;24.732;2023-03-24T16:01:23;99415.34;;;18.57;48.67
8051;BME280;4068;42.158;24.732;2023-03-24T16:03:55;99405.19;;;18.44;49.15